Santa Fe, Texas
Current Conditions -  °F | °C
As of 5:53 PM on Friday 31 Oct 2014 (Local Time) from KLVJ Reporting Station
Clear Clear  
Wind Chill: 76°   Ceiling: Unl
Heat Index: 76°   Visibility: 10mi
Dew Point: 40°   Wind: 10mph
Humidity: 27%   Direction: 360°N
Pressure: 30.16"   Gusts: NA
Location:  29.37°N, 95.08°W
Report Text: KLVJ 312253Z AUTO 36009KT 330V030 10SM CLR 24/04 A3016 RMK AO2 SLP213 T02440044
Loading
Personal Weather Stations






























Interactive Weather Map
Tropical Storm Tracking
New forecast layout! Learn more

10-Day Weather Forecast

Advertisements
Track Severe Weather on mobile